Time;durP1;ratioP1;P1;durP2;ratioP2;P2;SDS_P1;SDS_P2;PMS_P1;PMS_P2;Temp;Humidity;BMP_temperature;BMP_pressure;BME280_temperature;BME280_humidity;BME280_pressure;Samples;Min_cycle;Max_cycle;Signal;HPM_P1;HPM_P2
2023/04/09 00:01:06;;;;;;;11.50;9.70;;;;;;;8.68;80.96;101189.24;102526;278;95113;-59
2023/04/09 00:03:54;;;;;;;13.00;10.50;;;;;;;8.73;80.87;101190.11;102589;277;97385;-59
2023/04/09 00:06:31;;;;;;;12.30;10.10;;;;;;;8.79;81.14;101190.81;102510;278;120985;-56
2023/04/09 00:09:08;;;;;;;12.60;10.30;;;;;;;8.78;81.04;101191.22;102564;278;104896;-56
2023/04/09 00:11:48;;;;;;;12.40;10.20;;;;;;;8.73;81.38;101185.98;102560;278;114305;-56
2023/04/09 00:14:24;;;;;;;13.20;9.00;;;;;;;8.67;81.39;101185.69;102585;278;96927;-56
2023/04/09 00:17:09;;;;;;;10.10;8.60;;;;;;;8.66;81.41;101184.44;102604;278;96791;-59
2023/04/09 00:19:55;;;;;;;11.10;9.30;;;;;;;8.70;81.49;101184.90;102540;278;120525;-58
2023/04/09 00:22:34;;;;;;;10.70;9.00;;;;;;;8.70;81.53;101176.80;102564;278;106102;-59
2023/04/09 00:25:11;;;;;;;13.10;11.20;;;;;;;8.68;81.55;101177.36;102526;277;113515;-59
2023/04/09 00:27:49;;;;;;;12.30;10.30;;;;;;;8.71;81.72;101178.30;102512;278;96369;-56
2023/04/09 00:30:31;;;;;;;11.10;9.30;;;;;;;8.68;81.69;101179.30;102527;278;96294;-59
2023/04/09 00:33:14;;;;;;;13.00;9.30;;;;;;;8.63;81.87;101176.52;102480;278;120920;-58
2023/04/09 00:36:01;;;;;;;11.10;9.30;;;;;;;8.64;81.76;101179.41;102520;278;105742;-58
2023/04/09 00:38:41;;;;;;;11.10;9.80;;;;;;;8.64;81.82;101174.16;102493;278;114952;-59
2023/04/09 00:41:20;;;;;;;13.20;11.00;;;;;;;8.62;82.09;101175.48;102530;278;95232;-60
2023/04/09 00:44:07;;;;;;;13.00;11.00;;;;;;;8.63;82.09;101175.97;102535;278;96950;-61
2023/04/09 00:46:49;;;;;;;12.30;10.10;;;;;;;8.61;82.05;101171.51;102510;278;120317;-58
2023/04/09 00:49:32;;;;;;;12.60;10.60;;;;;;;8.58;81.87;101172.27;102509;278;105915;-59
2023/04/09 00:52:25;;;;;;;12.10;9.60;;;;;;;8.59;81.98;101169.67;102535;278;114056;-60
2023/04/09 00:55:06;;;;;;;11.60;9.80;;;;;;;8.56;82.01;101172.20;102436;278;93525;-58
2023/04/09 00:57:47;;;;;;;11.70;9.80;;;;;;;8.53;82.09;101172.89;102560;278;98336;-57
2023/04/09 01:00:30;;;;;;;11.40;9.60;;;;;;;8.46;82.23;101174.86;102533;278;119463;-60
2023/04/09 01:03:07;;;;;;;11.70;9.90;;;;;;;8.41;82.18;101178.93;102524;278;105528;-61
2023/04/09 01:05:54;;;;;;;11.70;9.10;;;;;;;8.40;82.14;101182.79;102526;278;115272;-61
2023/04/09 01:08:48;;;;;;;11.10;9.20;;;;;;;8.39;82.17;101182.23;102529;278;94829;-61
2023/04/09 01:11:38;;;;;;;12.80;10.10;;;;;;;8.38;82.34;101182.67;102610;278;97796;-56
2023/04/09 01:14:30;;;;;;;10.30;9.20;;;;;;;8.33;82.45;101180.61;102546;278;121204;-57
2023/04/09 01:17:16;;;;;;;12.70;9.50;;;;;;;8.28;82.38;101182.73;102622;278;105741;-61
2023/04/09 01:20:03;;;;;;;11.20;9.30;;;;;;;8.32;82.36;101176.66;102543;278;114217;-62
2023/04/09 01:22:59;;;;;;;12.80;9.10;;;;;;;8.31;82.38;101179.12;102617;278;95079;-58
2023/04/09 01:26:02;;;;;;;11.00;9.80;;;;;;;8.30;82.41;101175.61;102588;278;98276;-60
2023/04/09 01:28:45;;;;;;;15.40;10.60;;;;;;;8.28;82.50;101175.23;102558;278;120043;-61
2023/04/09 01:31:32;;;;;;;12.00;10.20;;;;;;;8.25;82.63;101179.80;102532;278;106171;-58
2023/04/09 01:34:18;;;;;;;12.00;10.30;;;;;;;8.23;82.77;101180.70;102532;278;114795;-59
2023/04/09 01:36:59;;;;;;;12.80;9.70;;;;;;;8.22;82.88;101184.20;102559;278;96719;-58
2023/04/09 01:39:38;;;;;;;12.20;10.30;;;;;;;8.24;82.77;101186.23;102597;278;98319;-58
2023/04/09 01:42:17;;;;;;;13.00;11.00;;;;;;;8.23;82.88;101187.91;102561;278;121230;-58
2023/04/09 01:45:01;;;;;;;12.90;10.40;;;;;;;8.23;82.95;101187.58;102559;278;106270;-58
2023/04/09 01:47:43;;;;;;;13.10;10.90;;;;;;;8.27;82.97;101185.56;102517;278;113997;-56
2023/04/09 01:50:22;;;;;;;12.70;11.20;;;;;;;8.32;82.90;101182.96;102536;278;96493;-58
2023/04/09 01:53:02;;;;;;;14.10;9.90;;;;;;;8.35;82.89;101184.22;102529;278;98172;-58
2023/04/09 01:55:48;;;;;;;12.50;10.90;;;;;;;8.33;82.90;101183.58;102562;278;120960;-57
2023/04/09 01:58:28;;;;;;;15.80;12.60;;;;;;;8.29;83.25;101184.09;102542;278;104060;-54
2023/04/09 02:01:10;;;;;;;14.60;12.60;;;;;;;8.30;83.27;101181.50;102560;278;114562;-59
2023/04/09 02:04:00;;;;;;;15.40;12.40;;;;;;;8.22;83.27;101184.13;102560;278;97472;-57
2023/04/09 02:06:48;;;;;;;15.20;11.60;;;;;;;8.18;83.25;101185.56;102597;278;97411;-59
2023/04/09 02:09:29;;;;;;;14.40;10.50;;;;;;;8.17;83.11;101187.84;102556;278;119413;-59
2023/04/09 02:12:14;;;;;;;14.50;11.80;;;;;;;8.17;83.17;101192.63;102591;278;105176;-56
2023/04/09 02:14:55;;;;;;;15.80;13.10;;;;;;;8.20;83.34;101194.48;102546;278;112250;-56
2023/04/09 02:17:30;;;;;;;16.70;13.20;;;;;;;8.23;83.42;101193.48;102580;278;94803;-57
2023/04/09 02:20:05;;;;;;;16.00;12.50;;;;;;;8.23;83.63;101196.01;102554;277;96644;-59
2023/04/09 02:22:38;;;;;;;;;;;;;;;8.25;83.70;101196.90;102547;278;121852;-59
2023/04/09 02:25:14;;;;;;;15.30;12.40;;;;;;;8.25;83.66;101194.14;102619;278;105889;-59
2023/04/09 02:27:58;;;;;;;14.50;12.00;;;;;;;8.24;83.54;101198.28;102552;278;113211;-59
2023/04/09 02:30:41;;;;;;;15.20;12.40;;;;;;;8.22;83.80;101198.08;102522;278;95096;-58
2023/04/09 02:33:22;;;;;;;12.00;10.40;;;;;;;8.23;83.95;101199.55;102554;278;97840;-58
2023/04/09 02:35:58;;;;;;;15.30;12.20;;;;;;;8.25;83.86;101200.58;102517;278;121009;-59
2023/04/09 02:38:41;;;;;;;15.30;11.40;;;;;;;8.24;83.95;101202.71;102590;278;105320;-59
2023/04/09 02:41:24;;;;;;;12.80;10.40;;;;;;;8.25;83.83;101203.16;102564;278;114400;-56
2023/04/09 02:44:03;;;;;;;11.60;9.80;;;;;;;8.27;83.84;101198.32;102559;278;96489;-56
2023/04/09 02:46:44;;;;;;;12.20;10.00;;;;;;;8.22;84.11;101198.62;102577;278;97757;-58
2023/04/09 02:49:25;;;;;;;12.70;10.20;;;;;;;8.19;84.17;101201.60;102550;278;121123;-59
2023/04/09 02:52:13;;;;;;;11.80;10.10;;;;;;;8.15;84.10;101200.89;102542;278;104325;-58
2023/04/09 02:54:56;;;;;;;15.20;9.10;;;;;;;8.19;84.20;101200.91;102548;278;113399;-57
2023/04/09 02:57:35;;;;;;;12.40;9.40;;;;;;;8.18;84.18;101199.42;102565;278;96816;-56
2023/04/09 03:00:12;;;;;;;11.00;9.30;;;;;;;8.15;84.22;101199.53;102584;278;98193;-55
2023/04/09 03:02:49;;;;;;;10.90;9.70;;;;;;;8.16;84.24;101196.74;102538;278;121729;-61
2023/04/09 03:05:35;;;;;;;11.10;9.30;;;;;;;8.09;84.21;101190.42;102549;277;105824;-59
2023/04/09 03:08:16;;;;;;;10.10;8.00;;;;;;;8.10;84.34;101192.11;102583;278;114466;-58
2023/04/09 03:10:59;;;;;;;10.50;8.40;;;;;;;8.06;84.19;101191.62;102515;278;96634;-58
2023/04/09 03:13:41;;;;;;;10.40;8.50;;;;;;;8.06;84.16;101193.40;102557;278;98489;-60
2023/04/09 03:16:18;;;;;;;10.10;8.40;;;;;;;8.05;84.21;101195.90;102532;278;121246;-55
2023/04/09 03:18:58;;;;;;;11.60;8.40;;;;;;;8.06;84.11;101192.16;102539;278;106363;-57
2023/04/09 03:21:41;;;;;;;11.40;8.90;;;;;;;8.03;84.33;101191.35;102541;278;113775;-61
2023/04/09 03:24:21;;;;;;;11.20;9.10;;;;;;;8.06;84.20;101191.79;102499;278;93272;-62
2023/04/09 03:27:01;;;;;;;11.70;8.70;;;;;;;8.04;84.35;101191.83;102537;278;97840;-61
2023/04/09 03:29:49;;;;;;;10.20;8.50;;;;;;;8.03;84.33;101193.03;102485;278;120501;-61
2023/04/09 03:32:26;;;;;;;9.60;8.50;;;;;;;7.98;84.37;101191.05;102531;278;105921;-61
2023/04/09 03:35:05;;;;;;;10.80;8.60;;;;;;;7.96;84.49;101183.55;102496;277;114218;-61
2023/04/09 03:37:47;;;;;;;10.90;8.40;;;;;;;7.94;84.49;101185.70;102566;278;94531;-56
2023/04/09 03:40:35;;;;;;;11.40;9.80;;;;;;;7.95;84.41;101189.35;102559;278;97928;-57
2023/04/09 03:43:14;;;;;;;11.50;9.20;;;;;;;7.94;84.38;101188.71;102534;278;121367;-59
2023/04/09 03:45:57;;;;;;;11.50;9.70;;;;;;;7.91;84.28;101187.98;102523;278;105008;-59
2023/04/09 03:48:38;;;;;;;11.10;9.30;;;;;;;7.85;84.37;101183.59;102539;278;113266;-59
2023/04/09 03:51:26;;;;;;;13.90;10.20;;;;;;;7.75;84.18;101183.11;102564;278;97753;-58
2023/04/09 03:54:01;;;;;;;17.10;10.40;;;;;;;7.70;84.41;101185.35;102588;278;98191;-59
2023/04/09 03:56:36;;;;;;;12.10;10.10;;;;;;;7.63;84.50;101188.06;102644;278;120608;-59
2023/04/09 03:59:15;;;;;;;;;;;;;;;7.56;84.47;101185.94;102037;278;717866;-59
2023/04/09 04:01:57;;;;;;;13.80;10.60;;;;;;;7.49;84.52;101187.98;102595;278;114537;-56
2023/04/09 04:04:35;;;;;;;13.60;10.80;;;;;;;7.44;84.51;101189.46;102516;278;96854;-56
2023/04/09 04:07:10;;;;;;;12.90;10.50;;;;;;;7.37;84.46;101191.16;102507;278;98180;-58
2023/04/09 04:09:54;;;;;;;12.70;10.40;;;;;;;7.35;84.44;101192.48;102505;277;121251;-59
2023/04/09 04:12:35;;;;;;;12.30;9.90;;;;;;;7.34;84.47;101187.13;102544;278;105961;-59
2023/04/09 04:15:11;;;;;;;12.50;10.60;;;;;;;7.35;84.52;101187.27;102492;278;113371;-58
2023/04/09 04:17:51;;;;;;;11.70;10.40;;;;;;;7.34;84.61;101184.48;102491;278;95085;-61
2023/04/09 04:20:37;;;;;;;11.20;9.00;;;;;;;7.27;84.54;101187.91;102542;266;97595;-60
2023/04/09 04:23:23;;;;;;;12.30;10.00;;;;;;;7.24;84.57;101188.15;102526;278;121711;-62
2023/04/09 04:26:08;;;;;;;11.70;9.30;;;;;;;7.24;84.66;101183.20;102603;278;105734;-56
2023/04/09 04:28:48;;;;;;;11.90;9.20;;;;;;;7.25;84.74;101176.23;102606;278;115260;-56
2023/04/09 04:31:24;;;;;;;11.90;9.20;;;;;;;7.27;84.75;101176.40;102604;278;96322;-59
2023/04/09 04:34:08;;;;;;;11.30;9.60;;;;;;;7.29;84.75;101183.39;102597;278;98048;-59
2023/04/09 04:36:53;;;;;;;;;;;;;;;7.27;84.83;101178.73;102606;278;122014;-60
2023/04/09 04:39:35;;;;;;;11.10;9.30;;;;;;;7.29;84.82;101183.71;102570;278;105454;-61
2023/04/09 04:42:16;;;;;;;11.40;9.20;;;;;;;7.26;84.93;101182.45;102544;278;113685;-58
2023/04/09 04:44:52;;;;;;;10.40;8.70;;;;;;;7.25;85.23;101182.73;102518;278;96368;-59
2023/04/09 04:47:32;;;;;;;12.30;9.70;;;;;;;7.27;85.54;101184.15;102520;278;96408;-56
2023/04/09 04:50:11;;;;;;;13.40;10.10;;;;;;;7.36;85.69;101187.59;102562;278;120224;-56
2023/04/09 04:52:54;;;;;;;16.70;11.20;;;;;;;7.42;85.61;101189.98;102614;278;105330;-58
2023/04/09 04:55:38;;;;;;;11.40;9.10;;;;;;;7.45;85.84;101195.93;102543;278;114145;-62
2023/04/09 04:58:14;;;;;;;12.40;9.60;;;;;;;7.48;85.80;101202.14;102570;278;94683;-60
2023/04/09 05:00:49;;;;;;;12.30;9.60;;;;;;;7.53;85.91;101204.42;102566;278;98165;-56
2023/04/09 05:03:29;;;;;;;13.20;10.50;;;;;;;7.63;86.14;101203.86;102589;278;120731;-56
2023/04/09 05:06:06;;;;;;;14.00;10.70;;;;;;;7.69;85.99;101208.02;102553;278;104749;-59
2023/04/09 05:08:51;;;;;;;13.50;10.20;;;;;;;7.78;86.13;101211.86;102540;278;114395;-58
2023/04/09 05:11:32;;;;;;;11.60;9.40;;;;;;;7.88;85.99;101213.40;102548;278;97051;-57
2023/04/09 05:14:08;;;;;;;14.30;10.80;;;;;;;7.95;86.05;101216.39;102547;278;97795;-55
2023/04/09 05:16:42;;;;;;;13.60;10.60;;;;;;;8.01;86.12;101214.20;102574;278;121180;-62
2023/04/09 05:19:22;;;;;;;12.70;9.40;;;;;;;8.05;86.16;101213.80;102561;278;105012;-61
2023/04/09 05:22:03;;;;;;;13.20;9.90;;;;;;;8.16;86.42;101214.61;102572;278;114785;-57
2023/04/09 05:24:48;;;;;;;13.40;10.20;;;;;;;8.33;86.30;101210.57;102564;278;96619;-56
2023/04/09 05:27:34;;;;;;;13.40;10.10;;;;;;;8.51;86.44;101210.05;102589;278;97795;-62
2023/04/09 05:30:13;;;;;;;11.80;9.40;;;;;;;8.72;86.58;101208.17;102588;278;119411;-61
2023/04/09 05:32:48;;;;;;;12.50;10.00;;;;;;;8.93;86.54;101212.84;102575;278;105787;-59
2023/04/09 05:35:24;;;;;;;;;;;;;;;9.16;86.43;101217.08;102636;278;114126;-57
2023/04/09 05:38:06;;;;;;;13.20;10.40;;;;;;;9.38;86.26;101215.20;102489;278;95028;-59
2023/04/09 05:40:54;;;;;;;12.70;9.90;;;;;;;9.62;86.04;101216.83;102577;278;96958;-56
2023/04/09 05:43:35;;;;;;;11.00;9.30;;;;;;;9.82;85.60;101216.98;102546;278;120651;-56
2023/04/09 05:46:13;;;;;;;9.50;8.20;;;;;;;9.95;85.21;101217.92;102614;277;104433;-56
2023/04/09 05:48:55;;;;;;;10.80;8.60;;;;;;;10.04;84.81;101220.55;102567;278;114387;-57
2023/04/09 05:51:37;;;;;;;9.80;8.30;;;;;;;10.06;84.92;101218.30;102629;266;94560;-62
2023/04/09 05:54:16;;;;;;;8.50;7.60;;;;;;;10.15;84.36;101219.79;102614;278;98543;-61
2023/04/09 05:56:53;;;;;;;9.50;8.20;;;;;;;10.08;84.48;101224.40;102627;278;121295;-56
2023/04/09 05:59:32;;;;;;;9.60;8.30;;;;;;;10.09;84.24;101220.13;102591;278;105558;-56
2023/04/09 06:02:14;;;;;;;11.20;9.00;;;;;;;10.10;84.16;101220.26;102613;278;114889;-57
2023/04/09 06:04:57;;;;;;;8.30;7.40;;;;;;;10.21;84.16;101218.05;102617;278;97180;-57
2023/04/09 06:07:39;;;;;;;11.50;8.70;;;;;;;10.42;84.14;101221.06;102613;278;98110;-61
2023/04/09 06:10:15;;;;;;;11.20;8.90;;;;;;;10.59;84.20;101219.29;102566;278;120339;-62
2023/04/09 06:12:57;;;;;;;10.50;8.90;;;;;;;10.78;84.05;101217.91;102588;277;105418;-59
2023/04/09 06:15:32;;;;;;;11.30;9.30;;;;;;;11.00;83.84;101220.61;102596;277;114476;-59
2023/04/09 06:18:13;;;;;;;12.60;9.10;;;;;;;11.26;83.64;101222.14;102529;277;96585;-59
2023/04/09 06:21:06;;;;;;;11.30;8.90;;;;;;;11.66;83.66;101222.23;102566;278;97522;-59
2023/04/09 06:23:44;;;;;;;12.30;9.30;;;;;;;12.02;83.67;101223.86;102556;278;120050;-58
2023/04/09 06:26:27;;;;;;;11.50;9.30;;;;;;;12.14;83.36;101230.56;102516;278;107529;-59
2023/04/09 06:29:07;;;;;;;12.20;9.90;;;;;;;12.25;82.78;101227.48;102545;277;115002;-58
2023/04/09 06:31:47;;;;;;;12.20;10.40;;;;;;;12.22;81.96;101224.67;102545;278;94337;-59
2023/04/09 06:34:29;;;;;;;10.20;9.10;;;;;;;12.26;81.66;101225.19;102558;278;97816;-59
2023/04/09 06:37:08;;;;;;;13.00;10.20;;;;;;;12.30;81.66;101228.65;102577;278;120329;-62
2023/04/09 06:39:44;;;;;;;12.30;10.60;;;;;;;12.41;81.41;101230.23;102585;278;103393;-62
2023/04/09 06:42:26;;;;;;;13.00;10.80;;;;;;;12.46;81.01;101233.77;102601;278;114499;-62
2023/04/09 06:45:07;;;;;;;12.50;11.00;;;;;;;12.47;81.03;101234.04;102499;278;95621;-61
2023/04/09 06:47:43;;;;;;;12.20;9.40;;;;;;;12.61;80.88;101235.77;102567;278;95504;-58
2023/04/09 06:50:29;;;;;;;12.50;10.90;;;;;;;12.75;80.35;101238.95;102503;278;120525;-59
2023/04/09 06:53:08;;;;;;;13.30;10.60;;;;;;;12.90;79.78;101238.62;102561;278;105526;-57
2023/04/09 06:55:45;;;;;;;12.50;10.70;;;;;;;12.99;79.58;101241.32;102524;278;114871;-59
2023/04/09 06:58:26;;;;;;;12.80;10.70;;;;;;;13.09;79.44;101244.66;102544;278;93444;-59
2023/04/09 07:01:11;;;;;;;12.40;11.00;;;;;;;13.29;79.16;101250.33;102559;278;97945;-61
2023/04/09 07:03:48;;;;;;;19.90;12.80;;;;;;;13.50;79.12;101250.92;102549;278;120728;-61
2023/04/09 07:06:28;;;;;;;12.10;10.80;;;;;;;13.67;78.46;101255.92;102610;278;105635;-59
2023/04/09 07:09:11;;;;;;;13.30;11.50;;;;;;;13.69;78.05;101254.30;102518;278;113385;-58
2023/04/09 07:11:50;;;;;;;12.60;10.80;;;;;;;13.62;77.55;101258.69;102512;278;93960;-60
2023/04/09 07:14:31;;;;;;;12.30;11.00;;;;;;;13.43;77.20;101262.52;102535;278;98016;-60
2023/04/09 07:17:08;;;;;;;12.60;11.30;;;;;;;13.46;76.73;101257.48;102526;278;121891;-59
2023/04/09 07:19:46;;;;;;;14.40;12.50;;;;;;;13.52;76.52;101258.93;102554;278;105277;-59
2023/04/09 07:22:27;;;;;;;12.90;11.40;;;;;;;13.69;76.25;101257.83;102587;278;114151;-62
2023/04/09 07:25:06;;;;;;;14.00;11.90;;;;;;;13.83;76.04;101255.34;102510;278;94063;-62
2023/04/09 07:27:45;;;;;;;13.50;12.00;;;;;;;13.79;75.99;101251.36;102563;278;97164;-59
2023/04/09 07:30:22;;;;;;;12.60;11.20;;;;;;;13.92;76.01;101253.70;102542;278;120896;-58
2023/04/09 07:33:00;;;;;;;12.60;10.60;;;;;;;13.92;75.73;101259.80;102529;278;105828;-57
2023/04/09 07:35:40;;;;;;;14.50;12.30;;;;;;;13.96;75.72;101257.96;102511;278;114830;-59
2023/04/09 07:38:23;;;;;;;13.50;12.10;;;;;;;14.22;75.28;101258.20;102522;278;93844;-59
2023/04/09 07:41:12;;;;;;;14.60;12.20;;;;;;;14.46;75.09;101253.96;102543;278;97747;-62
2023/04/09 07:43:59;;;;;;;12.40;11.10;;;;;;;14.60;74.97;101256.98;102562;278;121448;-61
2023/04/09 07:46:40;;;;;;;12.80;11.30;;;;;;;14.46;74.32;101257.95;102600;278;105643;-62
2023/04/09 07:49:20;;;;;;;12.60;11.00;;;;;;;14.51;74.32;101256.74;102558;278;113155;-62
2023/04/09 07:52:04;;;;;;;13.30;11.50;;;;;;;14.67;73.78;101255.47;102574;278;95403;-58
2023/04/09 07:54:40;;;;;;;13.20;11.80;;;;;;;14.78;73.33;101256.16;102597;277;97257;-59
2023/04/09 07:57:18;;;;;;;14.00;12.30;;;;;;;14.88;72.98;101261.06;102574;278;120685;-62
2023/04/09 08:00:03;;;;;;;12.00;10.70;;;;;;;15.00;73.00;101252.86;102624;278;105764;-62
2023/04/09 08:02:40;;;;;;;12.70;11.40;;;;;;;15.34;72.51;101251.58;102600;278;114894;-56
2023/04/09 08:05:16;;;;;;;12.40;11.10;;;;;;;15.43;71.84;101252.73;102566;278;94371;-57
2023/04/09 08:07:58;;;;;;;12.80;11.50;;;;;;;15.66;71.79;101252.95;102566;278;97461;-63
2023/04/09 08:10:41;;;;;;;12.40;11.10;;;;;;;15.78;71.00;101254.16;102578;278;120102;-58
2023/04/09 08:13:20;;;;;;;11.70;10.40;;;;;;;15.83;70.20;101257.48;102596;278;104426;-59
2023/04/09 08:16:03;;;;;;;12.60;10.70;;;;;;;15.73;70.12;101255.21;102554;278;114937;-57
2023/04/09 08:18:40;;;;;;;11.60;10.40;;;;;;;15.75;69.82;101255.22;102532;278;94625;-56
2023/04/09 08:21:22;;;;;;;11.70;9.80;;;;;;;15.93;69.35;101251.75;102597;278;97295;-59
2023/04/09 08:24:03;;;;;;;11.50;10.30;;;;;;;15.96;68.60;101255.20;102616;278;121513;-59
2023/04/09 08:26:43;;;;;;;10.70;9.60;;;;;;;15.92;68.31;101255.18;102588;277;105415;-57
2023/04/09 08:29:26;;;;;;;11.90;10.40;;;;;;;16.23;68.59;101250.52;102577;275;114345;-57
2023/04/09 08:32:03;;;;;;;11.80;10.60;;;;;;;16.44;67.70;101248.46;102618;278;93863;-62
2023/04/09 08:34:41;;;;;;;11.50;10.30;;;;;;;16.55;67.48;101246.88;102580;278;98257;-61
2023/04/09 08:37:22;;;;;;;10.70;9.60;;;;;;;16.68;66.98;101245.39;102592;278;119908;-58
2023/04/09 08:40:02;;;;;;;10.50;9.40;;;;;;;16.58;67.03;101247.55;102590;278;105603;-60
2023/04/09 08:42:44;;;;;;;12.40;10.90;;;;;;;16.52;66.86;101249.76;102676;278;114831;-59
2023/04/09 08:45:21;;;;;;;10.00;8.90;;;;;;;16.54;66.60;101250.77;102606;278;93705;-60
2023/04/09 08:48:05;;;;;;;10.70;9.60;;;;;;;16.47;66.06;101249.86;102595;278;98218;-59
2023/04/09 08:50:49;;;;;;;9.90;8.90;;;;;;;16.44;65.59;101251.35;102590;278;121028;-60
2023/04/09 08:53:26;;;;;;;11.60;9.60;;;;;;;16.22;65.57;101246.79;102577;278;105695;-60
2023/04/09 08:56:03;;;;;;;10.00;9.00;;;;;;;16.11;65.13;101251.73;102548;278;112120;-62
2023/04/09 08:58:39;;;;;;;10.60;9.40;;;;;;;15.91;64.60;101248.98;102583;278;94874;-62
2023/04/09 09:01:31;;;;;;;11.20;9.90;;;;;;;15.78;64.42;101247.95;102629;278;98201;-58
2023/04/09 09:04:14;;;;;;;10.80;9.70;;;;;;;15.67;64.68;101248.52;102512;278;120047;-60
2023/04/09 09:06:54;;;;;;;10.50;9.40;;;;;;;15.57;64.62;101253.71;102564;278;105177;-59
2023/04/09 09:09:35;;;;;;;13.20;10.00;;;;;;;15.50;65.12;101253.36;102536;278;114954;-59
2023/04/09 09:12:36;;;;;;;10.70;9.60;;;;;;;15.35;65.02;101253.25;102528;278;93883;-57
2023/04/09 09:15:33;;;;;;;11.50;9.90;;;;;;;15.04;64.64;101265.89;102566;278;98237;-57
2023/04/09 09:18:09;;;;;;;11.90;10.30;;;;;;;14.79;64.43;101269.14;102624;278;121239;-59
2023/04/09 09:20:52;;;;;;;12.50;10.30;;;;;;;14.88;64.63;101272.91;102594;278;105456;-59
2023/04/09 09:23:43;;;;;;;12.00;10.80;;;;;;;14.92;64.58;101273.42;102515;278;114538;-59
2023/04/09 09:26:23;;;;;;;11.50;10.00;;;;;;;14.96;64.40;101280.34;102529;278;95050;-59
2023/04/09 09:29:11;;;;;;;12.10;10.70;;;;;;;14.85;64.37;101279.56;102580;278;98181;-59
2023/04/09 09:31:58;;;;;;;12.30;11.00;;;;;;;14.75;64.28;101276.63;102623;278;121598;-58
2023/04/09 09:34:36;;;;;;;13.80;10.90;;;;;;;14.72;64.08;101279.23;102627;278;105045;-58
2023/04/09 09:37:28;;;;;;;12.10;10.70;;;;;;;14.81;64.09;101278.90;102588;278;115124;-59
2023/04/09 09:40:03;;;;;;;11.20;9.50;;;;;;;14.98;64.46;101280.72;102599;278;95331;-59
2023/04/09 09:42:56;;;;;;;12.20;10.40;;;;;;;15.10;64.46;101273.80;102640;278;97622;-59
2023/04/09 09:45:40;;;;;;;11.80;10.60;;;;;;;15.14;64.30;101276.80;102634;278;119351;-58
2023/04/09 09:48:27;;;;;;;13.10;11.70;;;;;;;15.23;64.22;101275.41;102622;278;105969;-59
2023/04/09 09:51:03;;;;;;;11.40;10.00;;;;;;;15.33;64.05;101270.70;102578;278;113522;-56
2023/04/09 09:53:51;;;;;;;12.00;10.80;;;;;;;15.35;64.24;101269.59;102592;277;94162;-56
2023/04/09 09:56:38;;;;;;;12.70;11.20;;;;;;;15.74;64.66;101265.24;102600;278;97837;-59
2023/04/09 09:59:17;;;;;;;;;;;;;;;16.26;64.28;101263.85;102590;278;120635;-58
2023/04/09 10:02:06;;;;;;;12.40;11.10;;;;;;;16.74;63.75;101264.70;102618;278;105657;-60
2023/04/09 10:04:44;;;;;;;12.30;11.00;;;;;;;17.09;62.41;101261.98;102553;278;114463;-59
2023/04/09 10:07:19;;;;;;;12.30;10.90;;;;;;;17.05;61.27;101259.01;102632;278;93319;-56
2023/04/09 10:10:01;;;;;;;11.70;10.50;;;;;;;16.90;61.35;101260.18;102625;278;98192;-56
2023/04/09 10:12:40;;;;;;;12.00;10.50;;;;;;;16.82;61.54;101255.47;102627;278;120692;-59
2023/04/09 10:15:25;;;;;;;13.30;10.90;;;;;;;16.71;61.47;101256.34;102578;278;105439;-59
2023/04/09 10:18:08;;;;;;;13.70;11.90;;;;;;;16.68;61.07;101257.38;102564;278;113727;-57
2023/04/09 10:20:55;;;;;;;13.00;11.00;;;;;;;16.53;60.91;101255.25;102604;278;93487;-59
2023/04/09 10:23:42;;;;;;;13.00;11.50;;;;;;;16.49;60.80;101252.38;102561;278;97652;-60
2023/04/09 10:26:27;;;;;;;12.10;10.60;;;;;;;16.37;60.49;101256.30;102569;278;119670;-60
2023/04/09 10:29:14;;;;;;;12.90;11.50;;;;;;;16.05;60.47;101257.33;102588;278;105137;-58
2023/04/09 10:32:03;;;;;;;13.60;11.10;;;;;;;15.99;60.69;101254.79;102555;278;113984;-57
2023/04/09 10:34:46;;;;;;;11.80;10.40;;;;;;;15.86;61.03;101257.89;102573;266;94448;-56
2023/04/09 10:37:27;;;;;;;12.00;10.80;;;;;;;15.72;61.41;101256.80;102558;278;96817;-58
2023/04/09 10:40:08;;;;;;;12.90;11.40;;;;;;;15.60;61.72;101256.02;102562;278;120670;-59
2023/04/09 10:42:52;;;;;;;12.40;11.20;;;;;;;15.60;61.82;101258.59;102641;278;104315;-57
2023/04/09 10:45:52;;;;;;;12.00;10.70;;;;;;;15.58;62.16;101256.10;102566;278;114291;-61
2023/04/09 10:48:36;;;;;;;12.10;10.80;;;;;;;15.63;62.53;101253.02;102553;278;94591;-62
2023/04/09 10:51:27;;;;;;;12.00;10.70;;;;;;;15.81;62.46;101252.23;102565;278;97756;-60
2023/04/09 10:54:06;;;;;;;12.50;11.00;;;;;;;16.11;62.32;101249.38;102563;278;121360;-59
2023/04/09 10:57:16;;;;;;;12.00;10.60;;;;;;;16.18;62.24;101248.02;102586;281;105054;-59
2023/04/09 10:59:55;;;;;;;12.40;10.40;;;;;;;16.17;62.32;101249.23;102530;278;114628;-60
2023/04/09 11:03:16;;;;;;;12.80;11.50;;;;;;;16.32;62.39;101249.06;102571;278;95371;-59
2023/04/09 11:05:56;;;;;;;14.20;10.90;;;;;;;16.28;61.94;101248.30;102538;278;97635;-57
2023/04/09 11:08:41;;;;;;;12.70;11.10;;;;;;;16.35;62.09;101245.38;102550;278;119435;-56
2023/04/09 11:11:28;;;;;;;12.20;10.10;;;;;;;16.45;61.70;101247.95;102576;278;105881;-57
2023/04/09 11:14:04;;;;;;;13.20;10.60;;;;;;;16.38;61.61;101245.34;102519;278;114520;-57
2023/04/09 11:16:47;;;;;;;12.30;11.00;;;;;;;16.42;61.60;101242.64;102549;278;94996;-59
2023/04/09 11:19:31;;;;;;;12.50;10.30;;;;;;;16.54;61.39;101240.23;102582;278;98102;-58
2023/04/09 11:22:13;;;;;;;14.20;10.80;;;;;;;16.62;61.34;101242.83;102530;278;121500;-59
2023/04/09 11:24:56;;;;;;;11.50;9.70;;;;;;;16.54;61.25;101236.75;102579;278;106073;-60
2023/04/09 11:27:36;;;;;;;10.20;9.20;;;;;;;16.49;60.95;101242.06;102555;278;114487;-60
2023/04/09 11:30:13;;;;;;;11.50;9.40;;;;;;;16.48;60.66;101239.09;102585;278;93439;-60
2023/04/09 11:32:49;;;;;;;11.60;9.50;;;;;;;16.48;60.69;101243.23;102513;278;97800;-60
2023/04/09 11:35:26;;;;;;;11.10;9.70;;;;;;;16.56;60.11;101238.36;102544;278;118648;-59
2023/04/09 11:38:06;;;;;;;11.10;9.20;;;;;;;16.41;59.67;101238.35;102535;278;105847;-62
2023/04/09 11:40:49;;;;;;;10.60;9.50;;;;;;;16.66;59.78;101235.92;102530;278;113198;-61
2023/04/09 11:43:33;;;;;;;10.60;8.60;;;;;;;16.93;59.40;101234.43;102459;277;93381;-62
2023/04/09 11:46:09;;;;;;;;;;;;;;;17.36;59.07;101231.73;102540;278;97531;-59
2023/04/09 11:48:47;;;;;;;10.30;9.20;;;;;;;17.59;58.87;101232.33;102550;277;120958;-59
2023/04/09 11:51:26;;;;;;;9.90;8.60;;;;;;;17.78;58.58;101230.52;102610;278;106394;-60
2023/04/09 11:54:17;;;;;;;10.40;8.70;;;;;;;17.78;58.61;101232.61;102473;279;113834;-57
2023/04/09 11:57:01;;;;;;;9.90;8.90;;;;;;;17.90;58.43;101227.44;102587;278;94130;-63
2023/04/09 11:59:44;;;;;;;10.60;8.50;;;;;;;17.88;58.29;101224.41;102268;278;98410;-63
2023/04/09 12:02:21;;;;;;;11.20;8.90;;;;;;;17.82;57.93;101218.39;102605;278;120086;-57
2023/04/09 12:04:56;;;;;;;11.50;10.20;;;;;;;17.86;57.68;101218.99;102589;278;105329;-57
2023/04/09 12:07:37;;;;;;;10.00;8.70;;;;;;;17.97;57.61;101218.96;102598;278;115130;-59
2023/04/09 12:10:14;;;;;;;9.30;8.40;;;;;;;17.81;57.12;101219.90;102549;278;93342;-59
2023/04/09 12:12:52;;;;;;;9.50;8.40;;;;;;;17.56;57.15;101218.52;102584;278;96627;-59
2023/04/09 12:15:32;;;;;;;9.90;8.40;;;;;;;17.29;56.97;101214.14;102596;278;119543;-61
2023/04/09 12:18:12;;;;;;;9.00;7.70;;;;;;;16.98;56.86;101211.64;102553;278;105576;-62
2023/04/09 12:20:48;;;;;;;9.90;8.00;;;;;;;16.77;56.81;101211.42;102572;278;114613;-55